createdAt,value
2018-06-25T00:02:08.884Z,6.87
2018-06-25T00:04:38.575Z,5.70
2018-06-25T00:07:08.233Z,6.73
2018-06-25T00:09:37.903Z,6.43
2018-06-25T00:12:07.613Z,6.27
2018-06-25T00:14:37.275Z,6.17
2018-06-25T00:17:06.941Z,6.27
2018-06-25T00:19:36.716Z,6.73
2018-06-25T00:22:06.439Z,6.10
2018-06-25T00:24:36.136Z,5.97
2018-06-25T00:27:05.837Z,4.90
2018-06-25T00:29:35.533Z,5.47
2018-06-25T00:32:05.295Z,5.80
2018-06-25T00:34:34.978Z,6.20
2018-06-25T00:37:04.640Z,5.30
2018-06-25T00:39:34.565Z,6.00
2018-06-25T00:42:04.249Z,5.50
2018-06-25T00:44:33.960Z,5.93
2018-06-25T00:47:03.720Z,6.33
2018-06-25T00:49:33.383Z,6.20
2018-06-25T00:52:03.157Z,5.57
2018-06-25T00:54:32.837Z,5.33
2018-06-25T00:57:02.512Z,6.47
2018-06-25T00:59:43.253Z,6.30
2018-06-25T01:02:12.879Z,5.10
2018-06-25T01:04:49.251Z,5.63
2018-06-25T01:07:19.322Z,5.53
2018-06-25T01:09:49.289Z,6.13
2018-06-25T01:12:19.027Z,6.13
2018-06-25T01:14:48.724Z,5.97
2018-06-25T01:17:18.486Z,6.20
2018-06-25T01:19:48.156Z,6.33
2018-06-25T01:22:17.855Z,6.07
2018-06-25T01:24:47.535Z,6.63
2018-06-25T01:27:17.256Z,6.80
2018-06-25T01:29:46.943Z,8.50
2018-06-25T01:32:16.612Z,7.30
2018-06-25T01:34:52.761Z,6.70
2018-06-25T01:37:22.419Z,7.53
2018-06-25T01:39:52.136Z,8.27
2018-06-25T01:42:21.798Z,8.40
2018-06-25T01:44:51.445Z,7.23
2018-06-25T01:47:21.131Z,8.43
2018-06-25T01:49:50.772Z,8.90
2018-06-25T01:52:20.431Z,8.03
2018-06-25T01:54:50.136Z,8.60
2018-06-25T01:57:19.780Z,8.80
2018-06-25T01:59:49.458Z,8.63
2018-06-25T02:02:19.250Z,8.67
2018-06-25T02:04:48.920Z,10.17
2018-06-25T02:07:18.586Z,9.33
2018-06-25T02:09:48.288Z,10.37
2018-06-25T02:12:17.941Z,9.30
2018-06-25T02:14:47.613Z,8.33
2018-06-25T02:17:17.348Z,9.43
2018-06-25T02:19:47.038Z,8.67
2018-06-25T02:22:16.720Z,9.47
2018-06-25T02:24:46.452Z,8.37
2018-06-25T02:27:16.156Z,8.40
2018-06-25T02:29:45.804Z,9.40
2018-06-25T02:32:15.724Z,8.20
2018-06-25T02:34:45.429Z,9.33
2018-06-25T02:37:15.145Z,9.43
2018-06-25T02:39:44.792Z,8.73
2018-06-25T02:42:14.451Z,9.37
2018-06-25T02:44:44.169Z,10.40
2018-06-25T02:47:13.840Z,9.93
2018-06-25T02:49:43.492Z,8.40
2018-06-25T02:52:13.198Z,10.27
2018-06-25T02:54:42.861Z,10.60
2018-06-25T02:57:12.531Z,9.20
2018-06-25T02:59:42.247Z,8.47
2018-06-25T03:02:11.900Z,9.07
2018-06-25T03:04:41.573Z,10.67
2018-06-25T03:07:11.253Z,10.30
2018-06-25T03:09:40.968Z,10.40
2018-06-25T03:12:10.689Z,9.70
2018-06-25T03:14:40.596Z,11.27
2018-06-25T03:17:10.241Z,9.73
2018-06-25T03:19:39.907Z,9.27
2018-06-25T03:22:09.600Z,10.53
2018-06-25T03:24:39.256Z,10.27
2018-06-25T03:27:08.900Z,8.93
2018-06-25T03:29:38.585Z,8.63
2018-06-25T03:32:08.236Z,9.30
2018-06-25T03:34:37.896Z,8.70
2018-06-25T03:37:07.596Z,9.23
2018-06-25T03:39:37.265Z,10.10
2018-06-25T03:42:07.111Z,9.90
2018-06-25T03:44:36.781Z,10.07
2018-06-25T03:47:06.443Z,9.07
2018-06-25T03:49:36.220Z,7.07
2018-06-25T03:52:05.914Z,10.63
2018-06-25T03:54:35.601Z,7.97
2018-06-25T03:57:11.896Z,8.67
2018-06-25T03:59:41.543Z,7.83
2018-06-25T04:02:11.283Z,10.67
2018-06-25T04:04:40.940Z,8.60
2018-06-25T04:07:10.588Z,9.33
2018-06-25T04:09:40.296Z,9.03
2018-06-25T04:12:10.013Z,8.67
2018-06-25T04:14:39.638Z,8.53
2018-06-25T04:17:09.316Z,7.63
2018-06-25T04:19:38.961Z,9.63
2018-06-25T04:22:08.628Z,8.80
2018-06-25T04:24:38.304Z,9.43
2018-06-25T04:27:07.947Z,8.83
2018-06-25T04:29:37.608Z,9.03
2018-06-25T04:32:07.304Z,7.87
2018-06-25T04:34:36.955Z,9.60
2018-06-25T04:37:06.634Z,10.63
2018-06-25T04:39:36.369Z,9.17
2018-06-25T04:42:06.059Z,9.37
2018-06-25T04:44:35.739Z,9.13
2018-06-25T04:47:05.447Z,8.70
2018-06-25T04:49:35.115Z,9.33
2018-06-25T04:52:04.857Z,9.73
2018-06-25T04:54:34.648Z,8.33
2018-06-25T04:57:04.375Z,9.20
2018-06-25T04:59:34.071Z,9.27
2018-06-25T05:02:03.756Z,9.43
2018-06-25T05:04:33.389Z,7.57
2018-06-25T05:07:03.076Z,8.27
2018-06-25T05:09:32.720Z,8.23
2018-06-25T05:12:02.360Z,8.60
2018-06-25T05:14:32.069Z,10.00
2018-06-25T05:17:01.752Z,8.73
2018-06-25T05:19:31.405Z,9.20
2018-06-25T05:22:01.120Z,11.37
2018-06-25T05:24:30.820Z,9.50
2018-06-25T05:27:00.516Z,10.20
2018-06-25T05:29:30.324Z,9.03
2018-06-25T05:32:00.055Z,10.57
2018-06-25T05:34:29.758Z,8.37
2018-06-25T05:36:59.497Z,7.40
2018-06-25T05:39:29.205Z,8.57
2018-06-25T05:41:58.891Z,8.00
2018-06-25T05:44:28.614Z,8.23
2018-06-25T05:46:58.264Z,9.33
2018-06-25T05:49:27.928Z,7.83
2018-06-25T05:51:57.680Z,8.53
2018-06-25T05:54:27.563Z,8.83
2018-06-25T05:56:57.252Z,7.57
2018-06-25T05:59:26.929Z,8.73
2018-06-25T06:01:56.611Z,8.97
2018-06-25T06:04:26.297Z,8.20
2018-06-25T06:06:55.997Z,7.27
2018-06-25T06:09:25.641Z,8.17
2018-06-25T06:11:55.348Z,7.00
2018-06-25T06:14:25.000Z,7.93
2018-06-25T06:16:54.671Z,7.07
2018-06-25T06:19:24.371Z,7.70
2018-06-25T06:21:54.068Z,6.40
2018-06-25T06:24:23.751Z,7.27
2018-06-25T06:26:53.425Z,6.83
2018-06-25T06:29:23.052Z,7.83
2018-06-25T06:31:52.680Z,7.10
2018-06-25T06:34:22.363Z,6.43
2018-06-25T06:36:52.036Z,6.60
2018-06-25T06:39:21.679Z,6.50
2018-06-25T06:41:51.375Z,5.80
2018-06-25T06:44:21.013Z,5.40
2018-06-25T06:46:50.671Z,5.90
2018-06-25T06:49:21.903Z,6.33
2018-06-25T06:51:51.550Z,6.27
2018-06-25T06:54:21.260Z,6.07
2018-06-25T06:56:50.900Z,5.50
2018-06-25T06:59:20.591Z,5.40
2018-06-25T07:01:50.260Z,6.03
2018-06-25T07:04:19.886Z,5.10
2018-06-25T07:06:49.537Z,5.57
2018-06-25T07:09:19.239Z,6.00
2018-06-25T07:11:48.880Z,5.30
2018-06-25T07:14:18.528Z,5.83
2018-06-25T07:16:48.206Z,5.97
2018-06-25T07:19:17.817Z,6.37
2018-06-25T07:21:47.456Z,6.67
2018-06-25T07:24:17.133Z,6.50
2018-06-25T07:26:46.781Z,6.73
2018-06-25T07:29:16.469Z,8.60
2018-06-25T07:31:46.125Z,6.73
2018-06-25T07:34:15.789Z,6.43
2018-06-25T07:36:45.463Z,5.10
2018-06-25T07:39:15.140Z,5.70
2018-06-25T07:41:44.836Z,6.17
2018-06-25T07:44:14.505Z,6.17
2018-06-25T07:46:44.196Z,5.30
2018-06-25T07:49:13.864Z,5.40
2018-06-25T07:51:43.529Z,5.27
2018-06-25T07:54:13.440Z,4.73
2018-06-25T07:56:43.100Z,5.80
2018-06-25T07:59:12.729Z,5.27
2018-06-25T08:01:42.420Z,5.27
2018-06-25T08:04:12.037Z,5.77
2018-06-25T08:06:41.667Z,5.93
2018-06-25T08:09:12.178Z,6.23
2018-06-25T08:11:41.847Z,5.83
2018-06-25T08:14:11.508Z,6.17
2018-06-25T08:16:41.321Z,6.27
2018-06-25T08:19:10.934Z,5.87
2018-06-25T08:21:40.595Z,6.00
2018-06-25T08:24:10.348Z,6.30
2018-06-25T08:26:40.059Z,5.97
2018-06-25T08:29:10.688Z,6.50
2018-06-25T08:31:40.398Z,5.77
2018-06-25T08:34:10.212Z,6.23
2018-06-25T08:36:39.865Z,5.47
2018-06-25T08:39:11.816Z,5.80
2018-06-25T08:41:41.993Z,5.50
2018-06-25T08:44:11.688Z,5.03
2018-06-25T08:46:41.313Z,4.80
2018-06-25T08:49:11.182Z,4.40
2018-06-25T08:51:40.903Z,4.47
2018-06-25T08:54:10.584Z,4.50
2018-06-25T08:56:40.312Z,4.93
2018-06-25T08:59:10.207Z,4.70
2018-06-25T09:01:39.873Z,4.73
2018-06-25T09:04:09.587Z,4.33
2018-06-25T09:06:39.237Z,4.50
2018-06-25T09:09:10.940Z,4.77
2018-06-25T09:11:40.588Z,4.30
2018-06-25T09:14:10.377Z,4.00
2018-06-25T09:16:40.083Z,4.67
2018-06-25T09:19:09.729Z,4.70
2018-06-25T09:21:39.445Z,3.97
2018-06-25T09:24:09.121Z,4.30
2018-06-25T09:26:41.740Z,4.63
2018-06-25T09:29:12.403Z,4.43
2018-06-25T09:31:42.101Z,4.57
2018-06-25T09:34:16.821Z,4.17
2018-06-25T09:36:46.616Z,3.40
2018-06-25T09:39:16.304Z,3.57
2018-06-25T09:41:46.170Z,3.53
2018-06-25T09:44:15.721Z,4.17
2018-06-25T09:46:45.389Z,4.07
2018-06-25T09:49:15.094Z,3.20
2018-06-25T09:51:44.761Z,3.67
2018-06-25T09:54:14.466Z,3.37
2018-06-25T09:56:44.228Z,4.70
2018-06-25T09:59:13.909Z,3.93
2018-06-25T10:01:43.648Z,4.27
2018-06-25T10:04:13.359Z,4.50
2018-06-25T10:06:43.034Z,4.60
2018-06-25T10:09:13.165Z,4.60
2018-06-25T10:11:42.830Z,4.10
2018-06-25T10:14:12.542Z,4.30
2018-06-25T10:16:42.216Z,4.10
2018-06-25T10:19:11.880Z,4.10
2018-06-25T10:21:41.601Z,4.33
2018-06-25T10:24:11.284Z,4.50
2018-06-25T10:26:40.953Z,4.33
2018-06-25T10:29:10.646Z,4.53
2018-06-25T10:31:40.297Z,5.07
2018-06-25T10:34:09.949Z,5.23
2018-06-25T10:36:39.637Z,5.37
2018-06-25T10:39:10.803Z,6.60
2018-06-25T10:41:40.514Z,6.90
2018-06-25T10:44:10.339Z,7.50
2018-06-25T10:46:40.008Z,8.80
2018-06-25T10:49:09.737Z,6.60
2018-06-25T10:51:39.393Z,8.97
2018-06-25T10:54:09.311Z,8.67
2018-06-25T10:56:39.004Z,9.37
2018-06-25T10:59:08.664Z,8.93
2018-06-25T11:01:38.474Z,7.43
2018-06-25T11:04:08.272Z,6.97
2018-06-25T11:06:37.989Z,7.07
2018-06-25T11:09:09.868Z,7.50
2018-06-25T11:11:39.553Z,7.07
2018-06-25T11:14:09.311Z,8.07
2018-06-25T11:16:39.029Z,7.70
2018-06-25T11:19:08.717Z,7.10
2018-06-25T11:21:38.461Z,6.70
2018-06-25T11:24:08.168Z,6.97
2018-06-25T11:26:37.854Z,6.63
2018-06-25T11:29:07.573Z,6.77
2018-06-25T11:31:37.237Z,7.50
2018-06-25T11:34:06.908Z,7.07
2018-06-25T11:36:36.632Z,7.10
2018-06-25T11:39:08.862Z,7.10
2018-06-25T11:41:38.627Z,7.13
2018-06-25T11:44:08.339Z,7.43
2018-06-25T11:46:38.000Z,6.23
2018-06-25T11:49:07.709Z,6.33
2018-06-25T11:51:37.364Z,6.33
2018-06-25T11:54:07.772Z,5.60
2018-06-25T11:56:37.434Z,5.30
2018-06-25T11:59:07.148Z,5.10
2018-06-25T12:01:36.883Z,5.67
2018-06-25T12:04:06.602Z,5.20
2018-06-25T12:06:36.314Z,4.60
2018-06-25T12:09:07.874Z,5.07
2018-06-25T12:11:37.576Z,4.93
2018-06-25T12:14:07.326Z,5.40
2018-06-25T12:16:37.443Z,5.97
2018-06-25T12:19:07.122Z,5.50
2018-06-25T12:21:37.232Z,5.27
2018-06-25T12:24:06.947Z,5.20
2018-06-25T12:26:36.632Z,4.70
2018-06-25T12:29:06.366Z,5.23
2018-06-25T12:31:36.196Z,5.27
2018-06-25T12:34:05.829Z,5.50
2018-06-25T12:36:35.513Z,4.70
2018-06-25T12:39:08.231Z,5.43
2018-06-25T12:41:37.921Z,6.37
2018-06-25T12:44:08.469Z,6.40
2018-06-25T12:46:38.824Z,6.20
2018-06-25T12:49:08.508Z,6.67
2018-06-25T12:51:38.212Z,6.77
2018-06-25T12:54:07.852Z,6.23
2018-06-25T12:56:37.515Z,6.27
2018-06-25T12:59:07.223Z,6.50
2018-06-25T13:01:36.946Z,6.77
2018-06-25T13:04:06.898Z,6.30
2018-06-25T13:06:36.690Z,5.67
2018-06-25T13:09:09.500Z,5.53
2018-06-25T13:11:39.245Z,5.47
2018-06-25T13:14:09.303Z,5.83
2018-06-25T13:16:39.005Z,4.90
2018-06-25T13:19:08.715Z,4.93
2018-06-25T13:21:38.380Z,4.87
2018-06-25T13:24:08.104Z,4.57
2018-06-25T13:26:37.760Z,4.50
2018-06-25T13:29:07.524Z,4.40
2018-06-25T13:31:37.224Z,4.30
2018-06-25T13:34:06.900Z,4.27
2018-06-25T13:36:36.556Z,4.43
2018-06-25T13:39:08.611Z,4.63
2018-06-25T13:41:38.264Z,4.83
2018-06-25T13:44:07.924Z,4.70
2018-06-25T13:46:37.632Z,4.80
2018-06-25T13:49:07.288Z,5.17
2018-06-25T13:51:36.919Z,4.60
2018-06-25T13:54:06.750Z,4.90
2018-06-25T13:56:36.956Z,4.83
2018-06-25T13:59:06.708Z,4.80
2018-06-25T14:01:36.431Z,4.87
2018-06-25T14:04:06.472Z,4.93
2018-06-25T14:06:36.144Z,4.90
2018-06-25T14:09:08.265Z,5.10
2018-06-25T14:11:37.980Z,5.43
2018-06-25T14:14:08.395Z,4.20
2018-06-25T14:16:38.648Z,4.80
2018-06-25T14:19:08.458Z,4.50
2018-06-25T14:21:38.148Z,4.50
2018-06-25T14:24:13.106Z,4.40
2018-06-25T14:26:43.273Z,4.57
2018-06-25T14:29:18.290Z,4.63
2018-06-25T14:31:47.965Z,4.97
2018-06-25T14:34:23.076Z,5.47
2018-06-25T14:36:52.983Z,5.23
2018-06-25T14:39:22.736Z,4.67
2018-06-25T14:41:52.452Z,4.70
2018-06-25T14:44:22.140Z,4.53
2018-06-25T14:46:51.897Z,4.23
2018-06-25T14:49:21.614Z,4.97
2018-06-25T14:51:51.362Z,4.27
2018-06-25T14:54:21.077Z,4.60
2018-06-25T14:56:50.839Z,4.77
2018-06-25T14:59:20.655Z,4.50
2018-06-25T15:01:50.509Z,4.57
2018-06-25T15:04:20.285Z,4.40
2018-06-25T15:06:49.980Z,5.03
2018-06-25T15:09:19.646Z,4.37
2018-06-25T15:11:49.376Z,5.07
2018-06-25T15:14:19.064Z,4.70
2018-06-25T15:16:48.724Z,4.93
2018-06-25T15:19:18.567Z,4.53
2018-06-25T15:21:48.244Z,4.40
2018-06-25T15:24:17.990Z,5.00
2018-06-25T15:26:48.049Z,4.97
2018-06-25T15:29:17.693Z,4.57
2018-06-25T15:31:47.504Z,4.17
2018-06-25T15:34:17.173Z,4.07
2018-06-25T15:36:46.860Z,4.33
2018-06-25T15:39:16.714Z,4.77
2018-06-25T15:41:46.447Z,4.73
2018-06-25T15:44:16.122Z,4.60
2018-06-25T15:46:45.805Z,4.47
2018-06-25T15:49:15.453Z,4.10
2018-06-25T15:51:45.167Z,4.77
2018-06-25T15:54:14.810Z,4.90
2018-06-25T15:56:44.494Z,4.63
2018-06-25T15:59:14.221Z,4.90
2018-06-25T16:01:43.875Z,4.73
2018-06-25T16:04:13.592Z,4.40
2018-06-25T16:06:43.376Z,4.17
2018-06-25T16:09:13.065Z,4.63
2018-06-25T16:11:42.743Z,4.17
2018-06-25T16:14:12.453Z,4.37
2018-06-25T16:16:42.120Z,4.43
2018-06-25T16:19:11.787Z,4.27
2018-06-25T16:21:41.712Z,5.40
2018-06-25T16:24:11.345Z,4.47
2018-06-25T16:26:40.963Z,4.03
2018-06-25T16:29:10.727Z,4.80
2018-06-25T16:31:40.388Z,4.07
2018-06-25T16:34:10.134Z,4.67
2018-06-25T16:36:40.788Z,4.27
2018-06-25T16:39:12.339Z,4.40
2018-06-25T16:41:42.105Z,4.27
2018-06-25T16:44:11.751Z,3.90
2018-06-25T16:46:41.436Z,4.00
2018-06-25T16:49:11.154Z,4.67
2018-06-25T16:51:40.788Z,3.87
2018-06-25T16:54:10.487Z,4.27
2018-06-25T16:56:40.147Z,4.17
2018-06-25T16:59:09.811Z,4.50
2018-06-25T17:01:39.520Z,4.23
2018-06-25T17:04:09.165Z,4.00
2018-06-25T17:06:38.839Z,4.43
2018-06-25T17:09:11.050Z,4.93
2018-06-25T17:11:41.532Z,6.87
2018-06-25T17:14:11.309Z,4.87
2018-06-25T17:16:40.980Z,4.33
2018-06-25T17:19:11.303Z,7.83
2018-06-25T17:21:40.974Z,5.60
2018-06-25T17:24:10.705Z,4.20
2018-06-25T17:26:40.385Z,5.03
2018-06-25T17:29:10.040Z,4.53
2018-06-25T17:31:39.664Z,4.23
2018-06-25T17:34:09.340Z,4.63
2018-06-25T17:36:38.984Z,5.23
2018-06-25T17:39:09.240Z,4.93
2018-06-25T17:41:38.875Z,4.40
2018-06-25T17:44:08.583Z,3.80
2018-06-25T17:46:38.265Z,4.20
2018-06-25T17:49:07.899Z,3.63
2018-06-25T17:51:37.579Z,4.50
2018-06-25T17:54:07.319Z,4.10
2018-06-25T17:56:36.956Z,4.27
2018-06-25T17:59:06.736Z,4.03
2018-06-25T18:01:36.549Z,4.47
2018-06-25T18:04:06.208Z,4.13
2018-06-25T18:06:35.872Z,4.80
2018-06-25T18:09:08.912Z,4.80
2018-06-25T18:11:38.544Z,3.97
2018-06-25T18:14:08.260Z,4.73
2018-06-25T18:16:37.914Z,4.17
2018-06-25T18:19:07.648Z,4.27
2018-06-25T18:21:37.331Z,4.37
2018-06-25T18:24:07.020Z,3.87
2018-06-25T18:26:36.688Z,4.10
2018-06-25T18:29:06.387Z,4.53
2018-06-25T18:31:36.588Z,4.30
2018-06-25T18:34:06.319Z,4.37
2018-06-25T18:36:35.980Z,4.93
2018-06-25T18:39:08.827Z,4.67
2018-06-25T18:41:38.532Z,4.70
2018-06-25T18:44:08.292Z,4.40
2018-06-25T18:46:38.029Z,4.10
2018-06-25T18:49:07.835Z,4.20
2018-06-25T18:51:37.535Z,4.30
2018-06-25T18:54:07.192Z,4.40
2018-06-25T18:56:36.823Z,5.10
2018-06-25T18:59:06.560Z,4.73
2018-06-25T19:01:36.220Z,4.57
2018-06-25T19:04:06.433Z,3.73
2018-06-25T19:06:36.073Z,4.40
2018-06-25T19:09:10.285Z,4.87
2018-06-25T19:11:40.268Z,4.50
2018-06-25T19:14:09.923Z,4.67
2018-06-25T19:16:39.628Z,4.67
2018-06-25T19:19:09.314Z,4.87
2018-06-25T19:21:38.957Z,4.13
2018-06-25T19:24:08.670Z,4.53
2018-06-25T19:26:38.332Z,4.20
2018-06-25T19:29:08.077Z,4.33
2018-06-25T19:31:37.721Z,4.33
2018-06-25T19:34:07.443Z,4.20
2018-06-25T19:36:37.120Z,4.53
2018-06-25T19:39:09.960Z,4.60
2018-06-25T19:41:39.764Z,4.70
2018-06-25T19:44:09.906Z,4.67
2018-06-25T19:46:39.648Z,4.03
2018-06-25T19:49:09.752Z,4.60
2018-06-25T19:51:39.458Z,4.60
2018-06-25T19:54:09.274Z,4.33
2018-06-25T19:56:38.911Z,4.53
2018-06-25T19:59:08.588Z,4.47
2018-06-25T20:01:38.260Z,4.20
2018-06-25T20:04:07.970Z,4.87
2018-06-25T20:06:37.720Z,4.90
2018-06-25T20:09:10.419Z,5.17
2018-06-25T20:11:40.252Z,4.87
2018-06-25T20:14:10.001Z,5.50
2018-06-25T20:16:39.800Z,5.20
2018-06-25T20:19:09.494Z,6.03
2018-06-25T20:21:39.425Z,5.43
2018-06-25T20:24:09.257Z,5.70
2018-06-25T20:26:38.938Z,5.27
2018-06-25T20:29:08.684Z,5.43
2018-06-25T20:31:38.409Z,5.47
2018-06-25T20:34:08.167Z,5.50
2018-06-25T20:36:37.869Z,5.40
2018-06-25T20:39:10.205Z,5.50
2018-06-25T20:41:39.955Z,5.37
2018-06-25T20:44:09.707Z,6.33
2018-06-25T20:46:39.448Z,5.93
2018-06-25T20:49:09.108Z,5.27
2018-06-25T20:51:38.816Z,5.40
2018-06-25T20:54:08.889Z,5.47
2018-06-25T20:56:38.637Z,6.07
2018-06-25T20:59:08.372Z,5.10
2018-06-25T21:01:38.061Z,5.77
2018-06-25T21:04:07.761Z,6.07
2018-06-25T21:06:37.528Z,6.13
2018-06-25T21:09:09.508Z,6.10
2018-06-25T21:11:39.356Z,5.90
2018-06-25T21:14:09.023Z,6.57
2018-06-25T21:16:38.704Z,5.47
2018-06-25T21:19:08.398Z,5.33
2018-06-25T21:21:38.163Z,5.53
2018-06-25T21:24:07.881Z,5.80
2018-06-25T21:26:37.623Z,5.87
2018-06-25T21:29:07.321Z,6.10
2018-06-25T21:31:37.018Z,5.87
2018-06-25T21:34:06.866Z,5.63
2018-06-25T21:36:36.584Z,5.63
2018-06-25T21:39:08.197Z,6.00
2018-06-25T21:41:37.866Z,5.43
2018-06-25T21:44:07.628Z,5.70
2018-06-25T21:46:37.325Z,5.87
2018-06-25T21:49:07.020Z,6.03
2018-06-25T21:51:36.732Z,6.53
2018-06-25T21:54:06.485Z,7.43
2018-06-25T21:56:36.136Z,7.50
2018-06-25T21:59:06.089Z,7.83
2018-06-25T22:01:36.231Z,8.40
2018-06-25T22:04:05.983Z,7.87
2018-06-25T22:06:35.712Z,8.00
2018-06-25T22:09:08.764Z,7.30
2018-06-25T22:11:38.476Z,7.53
2018-06-25T22:14:09.026Z,7.70
2018-06-25T22:16:38.819Z,7.97
2018-06-25T22:19:08.506Z,7.67
2018-06-25T22:21:38.284Z,7.80
2018-06-25T22:24:08.277Z,7.57
2018-06-25T22:26:37.986Z,7.70
2018-06-25T22:29:08.052Z,7.97
2018-06-25T22:31:37.800Z,7.90
2018-06-25T22:34:07.540Z,8.43
2018-06-25T22:36:37.322Z,9.13
2018-06-25T22:39:09.966Z,8.60
2018-06-25T22:41:40.388Z,8.37
2018-06-25T22:44:13.945Z,8.43
2018-06-25T22:46:44.524Z,9.47
2018-06-25T22:49:14.223Z,9.70
2018-06-25T22:51:43.913Z,8.73
2018-06-25T22:54:13.664Z,9.33
2018-06-25T22:56:43.419Z,10.07
2018-06-25T22:59:13.183Z,9.10
2018-06-25T23:01:42.860Z,9.07
2018-06-25T23:04:12.587Z,9.87
2018-06-25T23:06:42.328Z,9.97
2018-06-25T23:09:12.549Z,9.83
2018-06-25T23:11:42.311Z,9.73
2018-06-25T23:14:11.977Z,8.97
2018-06-25T23:16:41.665Z,9.47
2018-06-25T23:19:11.376Z,12.20
2018-06-25T23:21:41.082Z,12.17
2018-06-25T23:24:10.781Z,12.67
2018-06-25T23:26:40.557Z,13.93
2018-06-25T23:29:10.223Z,13.83
2018-06-25T23:31:39.895Z,14.87
2018-06-25T23:34:09.652Z,17.50
2018-06-25T23:36:39.420Z,16.93
2018-06-25T23:39:10.966Z,18.70
2018-06-25T23:41:41.043Z,18.73
2018-06-25T23:44:11.020Z,18.30
2018-06-25T23:46:40.739Z,20.17
2018-06-25T23:49:10.385Z,18.30
2018-06-25T23:51:40.104Z,19.53
2018-06-25T23:54:09.788Z,18.03
2018-06-25T23:56:39.485Z,20.37
2018-06-25T23:59:09.202Z,20.60
